PILOTS ONLINE: 374    ATC ONLINE: 38

KRND

Randolph Air Force Base

Location

City Universal City
Country  United States
Latitude 29° 31' 46" N
Longitude 98° 16' 44" W
Elevation 761 ft
Type Large Airport

Map

Weather

METAR
2014/10/21 12:58
KRND 211258Z AUTO 36003KT 10SM CLR 16/14 A3006 RMK AO2 SLP174 T01550137 $
TAF
2014/10/21 09:06
TAF KRND 2109/2215 06007KT 9999 SCT020 QNH2997INS 
      BECMG 2114/2115 09009KT 9999 SCT050 QNH2994INS 
      BECMG 2123/2124 11007KT 9999 SCT150 QNH3000INS TX29/2121Z TN15/2111Z

Runways

14L/32R 8351 ft / 200 ft
14R/32L 8353 ft / 200 ft

Outbound flights

Callsign Flying to Pilot ATD/STD ETA Aircraft

Inbound flights

Callsign Flying from Pilot ATD ETA Aircraft